Time;durP1;ratioP1;P1;durP2;ratioP2;P2;SDS_P1;SDS_P2;PMS_P1;PMS_P2;Temp;Humidity;BMP_temperature;BMP_pressure;BME280_temperature;BME280_humidity;BME280_pressure;Samples;Min_cycle;Max_cycle;Signal;HPM_P1;HPM_P2
2023/08/21 00:00:46;;;;;;;12.35;10.25;;;25.20;70.40;;;;;;5096846;28;20020;-59
2023/08/21 00:03:15;;;;;;;14.38;11.50;;;25.20;70.60;;;;;;5096357;28;20066;-59
2023/08/21 00:05:41;;;;;;;15.52;10.90;;;25.20;70.60;;;;;;5096182;28;20468;-60
2023/08/21 00:08:07;;;;;;;13.43;11.00;;;25.10;70.70;;;;;;5096232;28;20020;-60
2023/08/21 00:10:33;;;;;;;13.00;11.30;;;25.10;70.90;;;;;;5096340;28;20352;-60
2023/08/21 00:13:00;;;;;;;14.85;11.65;;;25.00;71.00;;;;;;5096252;28;20489;-60
2023/08/21 00:15:26;;;;;;;15.85;11.95;;;25.00;71.10;;;;;;5095464;28;20046;-60
2023/08/21 00:17:52;;;;;;;13.90;11.77;;;25.00;71.20;;;;;;5096013;28;20024;-60
2023/08/21 00:20:18;;;;;;;14.57;10.85;;;24.90;71.30;;;;;;5095938;28;20049;-60
2023/08/21 00:22:44;;;;;;;15.50;10.52;;;24.90;71.20;;;;;;5095781;28;20437;-60
2023/08/21 00:25:13;;;;;;;17.58;12.02;;;24.80;71.40;;;;;;5094876;28;20031;-60
2023/08/21 00:27:39;;;;;;;17.73;12.57;;;24.80;71.70;;;;;;5096380;28;20098;-60
2023/08/21 00:30:05;;;;;;;15.38;12.15;;;24.70;71.90;;;;;;5095757;28;20435;-60
2023/08/21 00:32:31;;;;;;;15.65;12.00;;;24.60;72.00;;;;;;5095677;28;20024;-60
2023/08/21 00:34:57;;;;;;;16.98;13.40;;;24.60;72.20;;;;;;5095876;28;20042;-60
2023/08/21 00:37:25;;;;;;;15.32;12.75;;;24.60;72.20;;;;;;5095629;28;20061;-60
2023/08/21 00:39:53;;;;;;;15.23;12.32;;;24.70;72.10;;;;;;5096142;28;20038;-60
2023/08/21 00:42:21;;;;;;;14.30;12.25;;;24.60;72.20;;;;;;5095475;28;20019;-60
2023/08/21 00:44:46;;;;;;;16.40;12.23;;;24.60;72.20;;;;;;5096080;28;20032;-60
2023/08/21 00:47:12;;;;;;;18.63;13.10;;;24.60;72.30;;;;;;5095556;28;20326;-60
2023/08/21 00:49:39;;;;;;;13.25;11.85;;;24.50;72.20;;;;;;5095453;28;20052;-60
2023/08/21 00:52:09;;;;;;;14.57;12.13;;;24.50;72.40;;;;;;5095661;28;20077;-60
2023/08/21 00:54:35;;;;;;;14.60;12.02;;;24.50;72.50;;;;;;5095677;28;20062;-60
2023/08/21 00:57:04;;;;;;;16.05;11.68;;;24.50;72.70;;;;;;5095639;28;20051;-60
2023/08/21 00:59:33;;;;;;;14.68;11.60;;;24.50;72.70;;;;;;5094349;28;20391;-60
2023/08/21 01:01:59;;;;;;;14.07;11.23;;;24.40;72.80;;;;;;5095175;28;20038;-60
2023/08/21 01:04:28;;;;;;;16.38;12.15;;;24.40;73.00;;;;;;5095323;28;20103;-60
2023/08/21 01:06:54;;;;;;;16.67;13.25;;;24.40;73.00;;;;;;5095767;28;20024;-60
2023/08/21 01:09:34;;;;;;;13.57;11.38;;;24.40;73.10;;;;;;5095230;28;20024;-60
2023/08/21 01:12:29;;;;;;;14.95;12.63;;;24.40;73.20;;;;;;5095689;28;20048;-60
2023/08/21 01:15:06;;;;;;;13.90;11.10;;;24.40;73.50;;;;;;5095507;28;20109;-60
2023/08/21 01:17:36;;;;;;;15.05;11.18;;;24.40;73.20;;;;;;5095539;28;20066;-60
2023/08/21 01:20:02;;;;;;;14.85;11.02;;;24.40;73.20;;;;;;5095737;28;20038;-60
2023/08/21 01:22:39;;;;;;;19.65;14.45;;;24.40;73.20;;;;;;5095554;28;20016;-60
2023/08/21 01:25:06;;;;;;;15.75;11.82;;;24.40;73.40;;;;;;5095460;28;20034;-60
2023/08/21 01:27:33;;;;;;;16.02;12.07;;;24.40;73.40;;;;;;5099007;28;20073;-60
2023/08/21 01:30:00;;;;;;;15.35;11.60;;;24.30;73.50;;;;;;5099200;28;20020;-60
2023/08/21 01:32:34;;;;;;;19.38;11.88;;;24.40;73.50;;;;;;5099411;28;20051;-60
2023/08/21 01:35:01;;;;;;;12.63;10.68;;;24.30;73.50;;;;;;5099351;28;20028;-60
2023/08/21 01:37:28;;;;;;;14.05;11.23;;;24.40;73.50;;;;;;5099127;28;20024;-60
2023/08/21 01:39:57;;;;;;;12.43;10.20;;;24.30;73.40;;;;;;5099025;28;20356;-60
2023/08/21 01:42:25;;;;;;;15.40;12.10;;;24.40;73.50;;;;;;5098888;28;20022;-60
2023/08/21 01:44:54;;;;;;;12.90;11.00;;;24.40;73.50;;;;;;5098849;28;20115;-60
2023/08/21 01:47:20;;;;;;;14.88;10.80;;;24.30;73.40;;;;;;5099411;28;20426;-60
2023/08/21 01:49:46;;;;;;;14.77;10.98;;;24.30;73.40;;;;;;5098530;28;20051;-60
2023/08/21 01:52:12;;;;;;;15.05;10.82;;;24.30;73.50;;;;;;5098691;28;20024;-60
2023/08/21 01:54:38;;;;;;;13.98;11.30;;;24.30;73.50;;;;;;5098971;28;20020;-60
2023/08/21 01:57:05;;;;;;;14.38;10.93;;;24.30;73.60;;;;;;5097792;28;20020;-60
2023/08/21 01:59:33;;;;;;;16.17;12.02;;;24.20;73.60;;;;;;5098906;28;20020;-60
2023/08/21 02:01:59;;;;;;;14.93;12.40;;;24.20;73.70;;;;;;5099081;28;20023;-60
2023/08/21 02:04:25;;;;;;;15.38;11.80;;;24.20;73.60;;;;;;5098790;28;20024;-60
2023/08/21 02:06:53;;;;;;;16.10;12.80;;;24.20;73.60;;;;;;5098574;28;20516;-60
2023/08/21 02:09:22;;;;;;;13.40;11.15;;;24.20;73.60;;;;;;5098534;28;20494;-60
2023/08/21 02:11:48;;;;;;;14.88;11.50;;;24.10;73.60;;;;;;5098293;28;20051;-60
2023/08/21 02:14:13;;;;;;;20.45;13.55;;;24.10;73.60;;;;;;5098302;28;20112;-60
2023/08/21 02:16:39;;;;;;;16.67;12.88;;;24.10;73.70;;;;;;5097275;28;20028;-60
2023/08/21 02:19:05;;;;;;;14.20;11.70;;;24.10;73.60;;;;;;5098865;28;20051;-60
2023/08/21 02:21:34;;;;;;;15.10;11.75;;;24.10;73.60;;;;;;5098788;28;20433;-60
2023/08/21 02:24:00;;;;;;;14.43;11.10;;;24.10;73.70;;;;;;5097532;28;20020;-60
2023/08/21 02:26:26;;;;;;;16.23;11.70;;;24.00;73.60;;;;;;5097151;28;20030;-60
2023/08/21 02:28:52;;;;;;;14.48;10.77;;;24.00;73.70;;;;;;5098098;28;20028;-60
2023/08/21 02:31:18;;;;;;;14.55;11.63;;;24.00;73.80;;;;;;5098099;28;20028;-60
2023/08/21 02:33:46;;;;;;;15.48;10.70;;;24.00;73.80;;;;;;5097913;28;20040;-60
2023/08/21 02:36:12;;;;;;;13.45;10.75;;;24.00;73.80;;;;;;5097927;28;20036;-60
2023/08/21 02:38:38;;;;;;;13.55;11.05;;;24.00;73.90;;;;;;5098208;28;20098;-60
2023/08/21 02:41:04;;;;;;;12.70;10.98;;;24.00;73.90;;;;;;5097827;28;20051;-60
2023/08/21 02:43:30;;;;;;;13.52;11.02;;;24.00;73.90;;;;;;5097781;28;20024;-60
2023/08/21 02:45:56;;;;;;;13.30;11.57;;;23.90;74.00;;;;;;5098068;28;20048;-61
2023/08/21 02:48:21;;;;;;;12.60;10.70;;;23.90;74.00;;;;;;5097282;28;20109;-60
2023/08/21 02:50:50;;;;;;;14.55;11.25;;;23.90;74.00;;;;;;5097784;28;20084;-60
2023/08/21 02:53:18;;;;;;;13.55;11.13;;;23.90;74.10;;;;;;5097573;28;20025;-60
2023/08/21 02:55:44;;;;;;;14.43;10.82;;;23.90;74.10;;;;;;5098060;28;20027;-59
2023/08/21 02:58:10;;;;;;;13.52;10.48;;;23.90;74.20;;;;;;5097868;28;20043;-60
2023/08/21 03:00:36;;;;;;;14.48;10.90;;;23.90;74.10;;;;;;5098047;28;20035;-60
2023/08/21 03:03:02;;;;;;;16.63;11.65;;;23.90;74.00;;;;;;5097514;28;20334;-60
2023/08/21 03:05:28;;;;;;;16.17;12.85;;;23.90;74.00;;;;;;5097922;28;20027;-60
2023/08/21 03:07:54;;;;;;;14.60;11.80;;;23.80;74.10;;;;;;5097602;28;20040;-60
2023/08/21 03:10:20;;;;;;;13.27;11.10;;;23.80;74.10;;;;;;5097285;28;20089;-60
2023/08/21 03:12:46;;;;;;;13.38;11.00;;;23.80;74.20;;;;;;5097114;28;20034;-60
2023/08/21 03:15:12;;;;;;;14.95;10.82;;;23.80;74.20;;;;;;5097665;28;20110;-60
2023/08/21 03:17:38;;;;;;;12.35;10.63;;;23.80;74.20;;;;;;5097131;28;20012;-60
2023/08/21 03:20:07;;;;;;;19.50;14.18;;;23.80;74.20;;;;;;5097408;28;20046;-60
2023/08/21 03:22:33;;;;;;;14.98;12.18;;;23.80;74.00;;;;;;5097490;28;20070;-60
2023/08/21 03:24:59;;;;;;;14.73;11.20;;;23.70;74.10;;;;;;5097027;28;20036;-61
2023/08/21 03:27:25;;;;;;;16.13;11.00;;;23.70;74.30;;;;;;5096980;28;20052;-60
2023/08/21 03:29:52;;;;;;;14.75;10.77;;;23.60;74.40;;;;;;5096907;28;20334;-60
2023/08/21 03:32:19;;;;;;;13.13;10.75;;;23.60;74.30;;;;;;5096775;28;20020;-60
2023/08/21 03:34:45;;;;;;;14.13;10.30;;;23.70;74.20;;;;;;5096656;28;20028;-60
2023/08/21 03:37:14;;;;;;;12.07;10.30;;;23.60;74.20;;;;;;5096796;28;20020;-60
2023/08/21 03:39:40;;;;;;;16.02;11.63;;;23.70;74.00;;;;;;5096661;28;20361;-60
2023/08/21 03:42:08;;;;;;;15.73;10.88;;;23.70;74.10;;;;;;5097048;28;20024;-60
2023/08/21 03:44:34;;;;;;;12.93;10.40;;;23.70;73.90;;;;;;5096615;28;20361;-60
2023/08/21 03:47:00;;;;;;;13.23;10.82;;;23.70;73.90;;;;;;5097129;28;20113;-60
2023/08/21 03:49:25;;;;;;;11.93;10.23;;;23.80;73.80;;;;;;5095762;28;20079;-60
2023/08/21 03:51:51;;;;;;;13.25;10.43;;;23.80;73.60;;;;;;5096683;28;20070;-60
2023/08/21 03:54:17;;;;;;;14.05;10.57;;;23.80;73.50;;;;;;5096363;28;20028;-60
2023/08/21 03:56:43;;;;;;;14.65;12.10;;;23.90;73.30;;;;;;5096618;28;20369;-60
2023/08/21 03:59:10;;;;;;;16.00;11.75;;;23.90;73.30;;;;;;5096629;28;20024;-60
2023/08/21 04:01:36;;;;;;;12.48;10.25;;;23.90;73.10;;;;;;5096295;28;20019;-60
2023/08/21 04:04:02;;;;;;;13.43;10.50;;;24.00;72.80;;;;;;5096412;28;20028;-60
2023/08/21 04:06:28;;;;;;;13.75;10.52;;;24.00;72.60;;;;;;5096201;28;20031;-60
2023/08/21 04:08:53;;;;;;;14.80;11.48;;;24.10;72.50;;;;;;5096399;28;20036;-59
2023/08/21 04:11:19;;;;;;;15.52;11.05;;;24.10;72.30;;;;;;5096721;28;20108;-60
2023/08/21 04:13:45;;;;;;;13.23;10.90;;;24.10;72.20;;;;;;5096000;28;20058;-60
2023/08/21 04:16:12;;;;;;;13.70;10.77;;;24.20;72.10;;;;;;5095079;28;20090;-60
2023/08/21 04:18:38;;;;;;;12.98;10.80;;;24.20;71.90;;;;;;5096243;28;20437;-60
2023/08/21 04:21:05;;;;;;;13.50;10.15;;;24.20;71.80;;;;;;5095912;28;20069;-60
2023/08/21 04:23:31;;;;;;;13.57;10.63;;;24.30;71.60;;;;;;5095808;28;20024;-60
2023/08/21 04:26:02;;;;;;;11.82;9.98;;;24.30;71.50;;;;;;5096496;28;20364;-59
2023/08/21 04:28:32;;;;;;;12.95;10.82;;;24.30;71.40;;;;;;5095843;28;20032;-60
2023/08/21 04:30:58;;;;;;;13.05;10.10;;;24.40;71.40;;;;;;5096300;28;20020;-60
2023/08/21 04:33:28;;;;;;;11.90;9.10;;;24.40;71.40;;;;;;5095694;28;20031;-60
2023/08/21 04:35:54;;;;;;;11.57;9.35;;;24.40;71.40;;;;;;5095626;28;20017;-60
2023/08/21 04:38:20;;;;;;;11.07;9.15;;;24.30;71.30;;;;;;5096224;28;20529;-60
2023/08/21 04:40:46;;;;;;;11.40;9.48;;;24.30;71.30;;;;;;5096158;28;20020;-60
2023/08/21 04:43:12;;;;;;;10.80;9.20;;;24.40;71.20;;;;;;5095538;28;20054;-60
2023/08/21 04:45:54;;;;;;;12.00;9.50;;;24.40;71.10;;;;;;5095524;28;20081;-60
2023/08/21 04:48:21;;;;;;;11.75;9.32;;;24.50;71.10;;;;;;5095809;28;20059;-60
2023/08/21 04:50:47;;;;;;;11.73;9.45;;;24.50;70.90;;;;;;5095784;28;20027;-60
2023/08/21 04:53:13;;;;;;;15.38;9.75;;;24.50;70.90;;;;;;5095344;28;20536;-60
2023/08/21 04:55:40;;;;;;;12.38;10.15;;;24.60;70.80;;;;;;5095381;28;20063;-60
2023/08/21 04:58:09;;;;;;;10.13;8.52;;;24.60;70.70;;;;;;5095670;28;20077;-60
2023/08/21 05:00:35;;;;;;;13.30;10.70;;;24.70;70.60;;;;;;5095292;28;20437;-60
2023/08/21 05:03:02;;;;;;;13.57;10.63;;;24.80;70.50;;;;;;5095873;28;20028;-60
2023/08/21 05:05:28;;;;;;;12.38;9.80;;;24.90;70.40;;;;;;5095616;28;20081;-60
2023/08/21 05:07:54;;;;;;;14.20;10.43;;;25.00;70.20;;;;;;5095596;28;20379;-60
2023/08/21 05:10:20;;;;;;;15.38;10.43;;;25.20;70.10;;;;;;5095574;28;20028;-58
2023/08/21 05:12:46;;;;;;;15.82;10.90;;;25.70;69.50;;;;;;5095315;28;20024;-60
2023/08/21 05:15:12;;;;;;;14.32;10.23;;;26.60;67.80;;;;;;5095758;28;20082;-60
2023/08/21 05:17:38;;;;;;;14.73;10.32;;;27.70;65.40;;;;;;5095190;28;20035;-60
2023/08/21 05:20:05;;;;;;;13.02;9.65;;;28.80;63.10;;;;;;5095450;28;20059;-61
2023/08/21 05:22:31;;;;;;;13.57;10.25;;;29.90;60.70;;;;;;5095139;28;20062;-61
2023/08/21 05:24:57;;;;;;;12.40;9.70;;;30.80;58.50;;;;;;5095171;28;20052;-61
2023/08/21 05:27:23;;;;;;;15.15;10.00;;;31.60;56.80;;;;;;5095160;28;20449;-59
2023/08/21 05:29:51;;;;;;;11.75;9.80;;;32.50;55.20;;;;;;5095619;28;20031;-61
2023/08/21 05:32:17;;;;;;;11.50;9.90;;;33.40;53.60;;;;;;5095246;28;20082;-60
2023/08/21 05:34:43;;;;;;;11.68;9.05;;;34.20;51.80;;;;;;5095235;28;20025;-60
2023/08/21 05:37:09;;;;;;;10.93;8.85;;;35.00;50.30;;;;;;5095563;28;20031;-61
2023/08/21 05:39:35;;;;;;;10.90;9.18;;;35.90;48.80;;;;;;5094057;28;20331;-61
2023/08/21 05:42:01;;;;;;;9.48;8.48;;;36.70;47.70;;;;;;5095416;28;20020;-61
2023/08/21 05:44:27;;;;;;;11.85;8.95;;;37.50;46.50;;;;;;5094991;28;20072;-60
2023/08/21 05:46:53;;;;;;;10.38;8.70;;;38.30;45.30;;;;;;5094911;28;20039;-61
2023/08/21 05:49:20;;;;;;;11.10;8.82;;;39.00;43.90;;;;;;5094946;28;20047;-60
2023/08/21 05:51:46;;;;;;;11.10;8.90;;;39.70;42.60;;;;;;5094827;28;20048;-61
2023/08/21 05:54:12;;;;;;;10.48;8.27;;;40.40;41.60;;;;;;5095339;28;20077;-61
2023/08/21 05:56:38;;;;;;;9.65;8.50;;;41.00;40.70;;;;;;5094204;28;20103;-61
2023/08/21 05:59:04;;;;;;;12.02;8.68;;;41.70;39.70;;;;;;5094871;28;20544;-61
2023/08/21 06:01:30;;;;;;;10.13;8.05;;;42.40;38.90;;;;;;5094786;28;20063;-60
2023/08/21 06:03:57;;;;;;;9.52;8.20;;;42.90;38.00;;;;;;5094739;28;20020;-60
2023/08/21 06:06:23;;;;;;;12.18;8.15;;;43.60;37.20;;;;;;5095341;28;20032;-61
2023/08/21 06:08:49;;;;;;;10.23;8.00;;;44.20;36.40;;;;;;5095545;28;20025;-61
2023/08/21 06:11:15;;;;;;;9.90;8.52;;;44.70;35.80;;;;;;5094772;28;20097;-61
2023/08/21 06:13:41;;;;;;;10.10;8.38;;;45.20;35.10;;;;;;5098032;28;20449;-61
2023/08/21 06:16:07;;;;;;;9.30;8.30;;;45.70;34.70;;;;;;5098409;28;20027;-61
2023/08/21 06:18:33;;;;;;;9.73;8.00;;;46.20;34.30;;;;;;5098263;28;20027;-61
2023/08/21 06:20:59;;;;;;;12.23;8.50;;;46.60;33.60;;;;;;5098480;28;20044;-61
2023/08/21 06:23:25;;;;;;;10.25;7.68;;;47.00;33.00;;;;;;5098158;28;20024;-61
2023/08/21 06:25:51;;;;;;;11.48;8.38;;;47.40;32.50;;;;;;5098681;28;20020;-62
2023/08/21 06:28:17;;;;;;;11.57;8.02;;;47.80;32.10;;;;;;5097995;28;20023;-61
2023/08/21 06:30:43;;;;;;;9.73;8.43;;;48.20;31.80;;;;;;5097936;28;20165;-61
2023/08/21 06:33:09;;;;;;;9.63;8.63;;;48.60;31.30;;;;;;5098250;28;20437;-61
2023/08/21 06:35:38;;;;;;;9.27;8.20;;;49.00;30.70;;;;;;5098163;28;20027;-61
2023/08/21 06:38:05;;;;;;;9.77;8.23;;;49.40;30.40;;;;;;5097920;28;20020;-61
2023/08/21 06:40:31;;;;;;;10.23;8.23;;;49.70;30.20;;;;;;5098120;28;20031;-61
2023/08/21 06:42:57;;;;;;;10.80;8.27;;;49.90;30.00;;;;;;5098022;28;20400;-61
2023/08/21 06:45:23;;;;;;;12.18;8.50;;;50.10;29.50;;;;;;5097761;28;20035;-61
2023/08/21 06:47:50;;;;;;;11.75;8.57;;;50.20;29.40;;;;;;5097964;28;20020;-61
2023/08/21 06:50:16;;;;;;;11.07;7.97;;;50.40;29.30;;;;;;5097465;28;20123;-61
2023/08/21 06:52:43;;;;;;;10.10;8.30;;;50.70;29.00;;;;;;5097599;28;20016;-61
2023/08/21 06:55:09;;;;;;;10.07;8.05;;;51.00;28.70;;;;;;5097797;28;20025;-61
2023/08/21 06:57:37;;;;;;;10.32;8.13;;;51.30;28.50;;;;;;5097550;28;20388;-61
2023/08/21 07:00:07;;;;;;;9.07;8.18;;;51.40;28.30;;;;;;5097514;28;20066;-61
2023/08/21 07:02:33;;;;;;;8.32;7.53;;;51.40;27.90;;;;;;5097826;28;20024;-61
2023/08/21 07:04:59;;;;;;;9.98;8.70;;;51.40;27.80;;;;;;5097702;28;20081;-61
2023/08/21 07:07:25;;;;;;;9.95;7.88;;;51.50;27.50;;;;;;5097932;28;20024;-61
2023/08/21 07:09:51;;;;;;;8.90;8.00;;;51.60;27.50;;;;;;5097359;28;20438;-61
2023/08/21 07:12:17;;;;;;;9.68;8.10;;;51.70;27.20;;;;;;5097264;28;20095;-61
2023/08/21 07:14:43;;;;;;;10.23;8.32;;;51.80;27.20;;;;;;5097700;28;20449;-61
2023/08/21 07:17:09;;;;;;;9.27;7.88;;;51.80;26.90;;;;;;5097405;28;20357;-61
2023/08/21 07:19:35;;;;;;;10.50;8.45;;;51.60;26.60;;;;;;5097156;28;20343;-61
2023/08/21 07:22:01;;;;;;;9.32;8.30;;;50.90;26.90;;;;;;5097041;28;20024;-61
2023/08/21 07:24:27;;;;;;;9.77;7.90;;;49.70;27.70;;;;;;5096157;28;20031;-61
2023/08/21 07:26:53;;;;;;;10.38;8.45;;;48.20;28.80;;;;;;5096968;28;20043;-61
2023/08/21 07:29:19;;;;;;;9.82;7.93;;;46.60;29.90;;;;;;5096924;28;20031;-61
2023/08/21 07:31:45;;;;;;;10.07;8.90;;;45.30;31.10;;;;;;5097057;28;20027;-61
2023/08/21 07:34:11;;;;;;;11.80;8.40;;;44.10;32.20;;;;;;5096683;28;20028;-61
2023/08/21 07:36:37;;;;;;;9.27;8.27;;;43.20;33.40;;;;;;5097321;28;20039;-61
2023/08/21 07:39:04;;;;;;;10.23;8.60;;;42.40;34.30;;;;;;5096732;28;20085;-61
2023/08/21 07:41:30;;;;;;;9.75;7.90;;;41.90;35.10;;;;;;5096720;28;20074;-61
2023/08/21 07:43:56;;;;;;;10.68;8.13;;;41.40;35.70;;;;;;5096558;28;20115;-61
2023/08/21 07:46:23;;;;;;;9.90;8.90;;;41.00;36.20;;;;;;5096629;28;20016;-61
2023/08/21 07:48:50;;;;;;;10.13;8.82;;;40.60;36.50;;;;;;5095410;28;20047;-61
2023/08/21 07:51:16;;;;;;;9.35;8.40;;;40.40;36.90;;;;;;5096539;28;20048;-61
2023/08/21 07:53:42;;;;;;;12.82;8.68;;;40.20;37.10;;;;;;5096331;28;20078;-61
2023/08/21 07:56:08;;;;;;;9.80;8.80;;;40.00;37.30;;;;;;5096440;28;20020;-61
2023/08/21 07:58:34;;;;;;;9.65;8.07;;;39.90;37.30;;;;;;5096905;28;20024;-61
2023/08/21 08:01:04;;;;;;;10.27;8.95;;;39.80;37.60;;;;;;5096175;28;20341;-61
2023/08/21 08:03:31;;;;;;;9.35;8.20;;;39.70;37.60;;;;;;5096169;28;20035;-61
2023/08/21 08:05:58;;;;;;;9.88;8.82;;;39.60;37.90;;;;;;5096391;28;20043;-61
2023/08/21 08:08:24;;;;;;;9.13;8.13;;;39.50;37.80;;;;;;5096753;28;20031;-61
2023/08/21 08:10:50;;;;;;;11.32;9.20;;;39.40;38.20;;;;;;5096141;28;20057;-61
2023/08/21 08:13:16;;;;;;;10.48;8.32;;;39.40;38.40;;;;;;5096060;28;20027;-61
2023/08/21 08:15:45;;;;;;;8.93;8.00;;;39.40;38.40;;;;;;5096277;28;20028;-61
2023/08/21 08:18:14;;;;;;;10.00;8.65;;;39.30;38.60;;;;;;5096012;28;20042;-61
2023/08/21 08:20:40;;;;;;;9.88;8.60;;;39.40;38.50;;;;;;5096273;28;20024;-61
2023/08/21 08:23:06;;;;;;;11.13;8.65;;;39.20;38.60;;;;;;5096138;28;20020;-61
2023/08/21 08:25:33;;;;;;;10.70;8.75;;;39.20;38.80;;;;;;5096206;28;20035;-61
2023/08/21 08:27:59;;;;;;;9.98;8.57;;;39.20;38.80;;;;;;5095848;28;20062;-61
2023/08/21 08:30:25;;;;;;;10.10;9.10;;;39.20;38.80;;;;;;5095831;28;20020;-61
2023/08/21 08:32:51;;;;;;;10.57;8.73;;;39.10;38.90;;;;;;5096020;28;20024;-61
2023/08/21 08:35:16;;;;;;;11.13;9.00;;;39.00;39.10;;;;;;5095298;28;20058;-61
2023/08/21 08:37:43;;;;;;;10.45;8.85;;;39.00;39.20;;;;;;5096264;28;20024;-61
2023/08/21 08:40:11;;;;;;;10.68;9.35;;;39.00;39.10;;;;;;5096496;28;20031;-61
2023/08/21 08:42:37;;;;;;;12.02;8.70;;;38.90;39.20;;;;;;5095613;28;20024;-61
2023/08/21 08:45:08;;;;;;;11.50;9.30;;;38.80;39.40;;;;;;5095646;28;20039;-61
2023/08/21 08:47:35;;;;;;;12.20;9.95;;;38.70;39.50;;;;;;5095633;28;20085;-61
2023/08/21 08:50:06;;;;;;;10.15;8.55;;;38.70;39.80;;;;;;5094033;28;20090;-61
2023/08/21 08:52:38;;;;;;;9.90;8.80;;;38.70;39.90;;;;;;5095502;28;20032;-61
2023/08/21 08:55:06;;;;;;;12.10;8.63;;;38.60;39.90;;;;;;5095288;28;20020;-61
2023/08/21 08:57:32;;;;;;;12.55;8.80;;;38.60;39.90;;;;;;5095423;28;20028;-61
2023/08/21 08:59:59;;;;;;;10.48;8.98;;;38.50;39.90;;;;;;5095084;28;20027;-61
2023/08/21 09:02:26;;;;;;;8.75;7.85;;;38.50;39.70;;;;;;5095315;28;20111;-61
2023/08/21 09:04:52;;;;;;;10.43;9.18;;;38.50;39.70;;;;;;5095725;28;20039;-61
2023/08/21 09:07:19;;;;;;;9.35;8.45;;;38.50;39.10;;;;;;5095643;28;20039;-61
2023/08/21 09:09:49;;;;;;;10.77;8.60;;;38.50;39.10;;;;;;5095296;28;20035;-61
2023/08/21 09:12:15;;;;;;;10.18;8.80;;;38.50;39.00;;;;;;5095020;28;20032;-61
2023/08/21 09:14:42;;;;;;;11.40;9.57;;;38.50;38.30;;;;;;5095321;28;20074;-61
2023/08/21 09:17:09;;;;;;;13.80;8.43;;;38.40;37.80;;;;;;5089966;28;20020;-61
2023/08/21 09:19:35;;;;;;;9.63;8.73;;;38.20;38.20;;;;;;5095711;28;20463;-61
2023/08/21 09:22:09;;;;;;;12.80;8.93;;;38.10;38.00;;;;;;5095200;28;20078;-61
2023/08/21 09:24:36;;;;;;;9.32;8.40;;;38.00;38.40;;;;;;5095773;28;20158;-61
2023/08/21 09:27:03;;;;;;;13.75;8.95;;;38.00;38.50;;;;;;5095702;28;20031;-61
2023/08/21 09:29:40;;;;;;;15.23;9.23;;;38.00;38.60;;;;;;5094174;28;20476;-61
2023/08/21 09:32:06;;;;;;;13.07;9.75;;;38.00;37.90;;;;;;5094221;28;20020;-61
2023/08/21 09:34:37;;;;;;;14.25;10.43;;;38.00;38.20;;;;;;5094968;28;20038;-61
2023/08/21 09:37:07;;;;;;;12.63;10.23;;;37.90;38.70;;;;;;5095417;28;20020;-61
2023/08/21 09:39:35;;;;;;;11.98;9.30;;;37.80;38.80;;;;;;5095332;28;20078;-61
2023/08/21 09:42:05;;;;;;;11.63;10.05;;;37.80;38.90;;;;;;5094998;28;20024;-61
2023/08/21 09:44:36;;;;;;;23.10;10.10;;;37.70;39.10;;;;;;5094977;28;20541;-60
2023/08/21 09:47:03;;;;;;;12.52;9.13;;;37.70;39.50;;;;;;5096365;28;20089;-62
2023/08/21 09:49:30;;;;;;;12.43;9.77;;;37.60;39.60;;;;;;5098791;28;20153;-61
2023/08/21 09:51:59;;;;;;;10.63;9.52;;;37.60;40.00;;;;;;5098842;28;20115;-61
2023/08/21 09:54:25;;;;;;;12.43;10.73;;;37.50;40.30;;;;;;5099278;28;20024;-62
2023/08/21 09:56:52;;;;;;;10.70;9.57;;;37.60;40.10;;;;;;5099190;28;20027;-61
2023/08/21 09:59:18;;;;;;;11.68;9.98;;;37.50;40.20;;;;;;5098715;28;20073;-62
2023/08/21 10:01:47;;;;;;;11.93;9.70;;;37.40;40.30;;;;;;5098733;28;20024;-61
2023/08/21 10:04:13;;;;;;;14.52;10.43;;;37.40;40.20;;;;;;5098647;28;20024;-62
2023/08/21 10:06:40;;;;;;;10.90;9.45;;;37.40;40.50;;;;;;5097983;28;20020;-61
2023/08/21 10:09:07;;;;;;;10.73;9.63;;;37.50;40.60;;;;;;5098574;28;20047;-61
2023/08/21 10:11:33;;;;;;;12.07;10.65;;;37.50;40.90;;;;;;5098739;28;20172;-61
2023/08/21 10:14:00;;;;;;;12.18;9.43;;;37.50;40.50;;;;;;5097273;28;20028;-61
2023/08/21 10:16:26;;;;;;;12.45;10.35;;;37.40;40.70;;;;;;5097897;28;20031;-61
2023/08/21 10:18:52;;;;;;;11.85;9.95;;;37.40;40.90;;;;;;5096375;28;20072;-61
2023/08/21 10:21:20;;;;;;;12.60;10.55;;;37.30;41.10;;;;;;5096361;28;20500;-62
2023/08/21 10:23:50;;;;;;;14.07;11.02;;;37.30;41.00;;;;;;5096242;28;20477;-61
2023/08/21 10:26:20;;;;;;;11.40;10.20;;;37.30;40.70;;;;;;5096294;28;20033;-61
2023/08/21 10:29:06;;;;;;;12.07;10.63;;;37.20;40.80;;;;;;5096229;28;20471;-62
2023/08/21 10:31:42;;;;;;;12.43;10.27;;;37.20;40.70;;;;;;5096431;28;20124;-61
2023/08/21 10:34:13;;;;;;;12.75;11.02;;;37.10;40.80;;;;;;5096290;28;20028;-61
2023/08/21 10:36:44;;;;;;;11.18;10.02;;;37.10;40.80;;;;;;5098072;28;20070;-61
2023/08/21 10:39:17;;;;;;;11.52;9.95;;;36.90;40.70;;;;;;5098659;28;20028;-62
2023/08/21 10:42:13;;;;;;;11.70;9.85;;;36.90;40.90;;;;;;5098681;28;20039;-62
2023/08/21 10:44:59;;;;;;;10.68;9.35;;;36.90;40.70;;;;;;5095825;28;20118;-61
2023/08/21 10:47:27;;;;;;;10.18;9.13;;;37.00;40.10;;;;;;5098611;28;20107;-61
2023/08/21 10:50:02;;;;;;;9.52;8.52;;;36.90;40.00;;;;;;5097517;28;20044;-61
2023/08/21 10:52:32;;;;;;;13.40;10.27;;;36.90;39.80;;;;;;5097694;28;20469;-62
2023/08/21 10:55:01;;;;;;;10.82;8.45;;;36.90;39.60;;;;;;5097624;28;20085;-61
2023/08/21 10:57:29;;;;;;;9.68;8.55;;;36.90;39.90;;;;;;5097448;28;20054;-61
2023/08/21 10:59:57;;;;;;;10.55;9.07;;;37.00;39.80;;;;;;5098094;28;20100;-61
2023/08/21 11:02:24;;;;;;;11.18;9.27;;;37.00;39.40;;;;;;5097997;28;20020;-61
2023/08/21 11:04:53;;;;;;;10.15;8.15;;;36.90;39.30;;;;;;5097498;28;20065;-61
2023/08/21 11:07:19;;;;;;;9.88;8.25;;;36.90;39.30;;;;;;5097402;28;20030;-61
2023/08/21 11:09:48;;;;;;;9.73;8.73;;;36.90;39.40;;;;;;5096302;28;20035;-62
2023/08/21 11:12:16;;;;;;;9.65;8.27;;;36.90;39.30;;;;;;5097721;28;20059;-62
2023/08/21 11:14:45;;;;;;;9.38;8.43;;;36.90;39.30;;;;;;5096301;28;20034;-61
2023/08/21 11:17:12;;;;;;;8.57;7.68;;;36.90;39.50;;;;;;5097514;28;20106;-62
2023/08/21 11:19:39;;;;;;;8.80;7.90;;;37.00;39.30;;;;;;5096572;28;20063;-62
2023/08/21 11:22:06;;;;;;;9.20;8.20;;;37.10;39.00;;;;;;5096106;28;20357;-61
2023/08/21 11:24:40;;;;;;;10.18;8.55;;;37.10;38.80;;;;;;5097322;28;20032;-62
2023/08/21 11:27:09;;;;;;;9.70;8.20;;;37.10;38.30;;;;;;5097272;28;20058;-61
2023/08/21 11:29:46;;;;;;;8.48;7.32;;;37.00;38.10;;;;;;5096921;28;20031;-61
2023/08/21 11:32:21;;;;;;;8.77;7.63;;;37.00;38.50;;;;;;5096807;28;20035;-62
2023/08/21 11:34:58;;;;;;;8.80;7.78;;;37.00;38.60;;;;;;5097095;28;20024;-62
2023/08/21 11:37:26;;;;;;;9.20;8.05;;;37.20;38.80;;;;;;5097075;28;20084;-62
2023/08/21 11:39:58;;;;;;;9.65;7.80;;;37.20;38.70;;;;;;5096978;28;20065;-62
2023/08/21 11:42:38;;;;;;;10.82;7.60;;;37.20;38.50;;;;;;5096907;28;20069;-61
2023/08/21 11:45:05;;;;;;;9.98;7.90;;;37.20;38.20;;;;;;5097288;28;20352;-61
2023/08/21 11:47:33;;;;;;;9.07;8.15;;;37.20;38.60;;;;;;5096945;28;20019;-61
2023/08/21 11:50:07;;;;;;;9.20;7.70;;;37.20;38.50;;;;;;5096280;28;20044;-61
2023/08/21 11:52:33;;;;;;;10.50;8.27;;;37.30;38.20;;;;;;5096480;28;20066;-61
2023/08/21 11:54:59;;;;;;;9.27;8.23;;;37.30;37.80;;;;;;5096761;28;20318;-61
2023/08/21 11:57:25;;;;;;;10.05;8.00;;;37.20;37.90;;;;;;5096447;28;20329;-61
2023/08/21 11:59:53;;;;;;;9.35;7.93;;;37.20;37.80;;;;;;5096407;28;20024;-61
2023/08/21 12:02:27;;;;;;;9.50;8.45;;;37.10;38.00;;;;;;5096248;28;20032;-61
2023/08/21 12:05:15;;;;;;;11.45;8.48;;;37.00;37.80;;;;;;5096932;28;20372;-61
2023/08/21 12:07:41;;;;;;;10.75;8.05;;;36.80;37.80;;;;;;5096623;28;20032;-62
2023/08/21 12:10:08;;;;;;;9.40;8.25;;;36.70;37.70;;;;;;5095610;28;20449;-61
2023/08/21 12:12:34;;;;;;;10.98;8.43;;;36.70;37.50;;;;;;5096092;28;20364;-61
2023/08/21 12:15:00;;;;;;;9.00;8.07;;;36.60;37.40;;;;;;5096041;28;20428;-61
2023/08/21 12:17:32;;;;;;;9.40;7.97;;;36.60;37.10;;;;;;5095776;28;20043;-61
2023/08/21 12:20:00;;;;;;;9.35;8.00;;;36.50;37.30;;;;;;5096112;28;20459;-61
2023/08/21 12:22:26;;;;;;;9.85;8.20;;;36.50;37.40;;;;;;5095848;28;20330;-61
2023/08/21 12:24:54;;;;;;;9.70;7.93;;;36.40;37.40;;;;;;5095978;28;20078;-61
2023/08/21 12:27:21;;;;;;;9.77;8.63;;;36.40;37.50;;;;;;5096463;28;20024;-61
2023/08/21 12:29:47;;;;;;;10.27;8.23;;;36.40;37.70;;;;;;5095829;28;20031;-61
2023/08/21 12:32:13;;;;;;;10.02;7.90;;;36.40;37.50;;;;;;5095782;28;20128;-61
2023/08/21 12:34:39;;;;;;;10.25;8.25;;;36.30;37.70;;;;;;5095958;28;20031;-61
2023/08/21 12:37:16;;;;;;;9.15;7.68;;;36.30;37.70;;;;;;5096279;28;20418;-61